Eckard, Illinois
Current Conditions -  °F | °C
As of 2:54 AM on Wednesday 28 Jan 2015 (Local Time) from KPIA Reporting Station
Broken Clouds Broken Clouds  
Wind Chill: 24°   Ceiling: 1400
Heat Index: 29°   Visibility: 9mi
Dew Point: 23°   Wind: 5mph
Humidity: 78%   Direction: 150°SSE
Pressure: 30.25"   Gusts: NA
Location:  40.2774°N, 90.0095°W
Report Text: KPIA 280854Z 15004KT 9SM BKN014 M02/M05 A3025 RMK AO2 SLP250 T10171050 56005
Loading
Personal Weather Stations






























Interactive Weather Map New forecast layout! Learn more

10-Day Weather Forecast

Advertisements
Track Severe Weather on mobile